createdAt,value
2023-04-20T00:01:01.447Z,7.70
2023-04-20T00:03:28.442Z,7.70
2023-04-20T00:05:55.583Z,7.70
2023-04-20T00:08:22.364Z,7.60
2023-04-20T00:10:49.199Z,7.60
2023-04-20T00:13:16.040Z,7.60
2023-04-20T00:15:42.885Z,7.50
2023-04-20T00:18:09.808Z,7.50
2023-04-20T00:20:36.828Z,7.50
2023-04-20T00:23:03.913Z,7.40
2023-04-20T00:25:31.580Z,7.40
2023-04-20T00:27:58.552Z,7.40
2023-04-20T00:30:25.405Z,7.30
2023-04-20T00:32:52.281Z,7.30
2023-04-20T00:35:19.084Z,7.30
2023-04-20T00:37:45.877Z,7.30
2023-04-20T00:40:12.766Z,7.20
2023-04-20T00:42:41.412Z,7.20
2023-04-20T00:45:08.812Z,7.20
2023-04-20T00:47:38.737Z,7.10
2023-04-20T00:50:06.757Z,7.00
2023-04-20T00:52:34.862Z,7.00
2023-04-20T00:55:03.320Z,6.90
2023-04-20T00:57:31.046Z,6.90
2023-04-20T00:59:58.385Z,6.80
2023-04-20T01:02:25.279Z,6.70
2023-04-20T01:04:52.174Z,6.70
2023-04-20T01:07:18.989Z,6.60
2023-04-20T01:09:45.813Z,6.60
2023-04-20T01:12:12.618Z,6.60
2023-04-20T01:14:39.440Z,6.60
2023-04-20T01:17:06.502Z,6.60
2023-04-20T01:19:33.710Z,6.60
2023-04-20T01:22:02.634Z,6.60
2023-04-20T01:24:29.497Z,6.60
2023-04-20T01:26:58.454Z,6.60
2023-04-20T01:29:25.365Z,6.60
2023-04-20T01:31:52.209Z,6.60
2023-04-20T01:34:19.143Z,6.70
2023-04-20T01:36:46.229Z,6.70
2023-04-20T01:39:13.085Z,6.70
2023-04-20T01:41:40.515Z,6.70
2023-04-20T01:44:07.316Z,6.70
2023-04-20T01:46:38.337Z,6.70
2023-04-20T01:49:07.406Z,6.70
2023-04-20T01:51:34.925Z,6.70
2023-04-20T01:54:01.946Z,6.70
2023-04-20T01:56:29.034Z,6.70
2023-04-20T01:58:58.569Z,6.70
2023-04-20T02:01:25.561Z,6.70
2023-04-20T02:03:53.525Z,6.80
2023-04-20T02:06:21.471Z,6.70
2023-04-20T02:08:48.321Z,6.80
2023-04-20T02:11:15.351Z,6.80
2023-04-20T02:13:42.293Z,6.80
2023-04-20T02:16:09.453Z,6.80
2023-04-20T02:18:37.251Z,6.80
2023-04-20T02:21:05.797Z,6.80
2023-04-20T02:23:32.634Z,6.80
2023-04-20T02:25:59.427Z,6.80
2023-04-20T02:28:26.350Z,6.90
2023-04-20T02:30:53.146Z,6.90
2023-04-20T02:33:21.643Z,6.90
2023-04-20T02:35:48.603Z,6.90
2023-04-20T02:38:15.816Z,6.90
2023-04-20T02:40:42.614Z,6.90
2023-04-20T02:43:09.988Z,6.90
2023-04-20T02:45:38.302Z,7.00
2023-04-20T02:48:06.291Z,6.90
2023-04-20T02:50:33.374Z,6.90
2023-04-20T02:53:20.395Z,6.90
2023-04-20T02:55:53.188Z,7.00
2023-04-20T02:58:32.227Z,7.00
2023-04-20T03:01:19.562Z,7.00
2023-04-20T03:03:48.526Z,7.00
2023-04-20T03:06:15.623Z,7.00
2023-04-20T03:08:47.763Z,7.00
2023-04-20T03:11:42.107Z,7.00
2023-04-20T03:14:11.057Z,7.00
2023-04-20T03:16:38.482Z,7.00
2023-04-20T03:19:05.562Z,7.00
2023-04-20T03:21:33.032Z,7.00
2023-04-20T03:24:00.174Z,7.00
2023-04-20T03:26:27.707Z,7.00
2023-04-20T03:29:09.842Z,7.00
2023-04-20T03:31:36.822Z,7.00
2023-04-20T03:34:03.869Z,7.00
2023-04-20T03:36:30.643Z,7.00
2023-04-20T03:38:57.451Z,7.00
2023-04-20T03:41:24.237Z,7.00
2023-04-20T03:43:51.237Z,7.00
2023-04-20T03:46:18.306Z,7.00
2023-04-20T03:48:46.388Z,7.00
2023-04-20T03:51:13.203Z,7.00
2023-04-20T03:53:40.225Z,7.00
2023-04-20T03:56:09.408Z,7.00
2023-04-20T03:58:36.309Z,7.00
2023-04-20T04:01:13.239Z,7.00
2023-04-20T04:03:44.702Z,7.00
2023-04-20T04:06:12.412Z,6.90
2023-04-20T04:08:39.196Z,6.90
2023-04-20T04:11:06.050Z,6.90
2023-04-20T04:13:34.640Z,6.90
2023-04-20T04:16:03.228Z,6.90
2023-04-20T04:18:32.635Z,6.90
2023-04-20T04:21:03.619Z,6.80
2023-04-20T04:23:30.821Z,6.80
2023-04-20T04:26:13.269Z,6.80
2023-04-20T04:28:45.797Z,6.70
2023-04-20T04:31:19.469Z,6.70
2023-04-20T04:33:47.043Z,6.60
2023-04-20T04:36:24.200Z,6.60
2023-04-20T04:38:51.299Z,6.60
2023-04-20T04:41:18.655Z,6.60
2023-04-20T04:43:47.969Z,6.70
2023-04-20T04:46:36.588Z,6.70
2023-04-20T04:49:04.291Z,6.70
2023-04-20T04:51:31.662Z,6.70
2023-04-20T04:53:58.476Z,6.60
2023-04-20T04:56:25.673Z,6.60
2023-04-20T04:58:52.456Z,6.60
2023-04-20T05:01:19.345Z,6.60
2023-04-20T05:03:46.371Z,6.60
2023-04-20T05:06:13.216Z,6.60
2023-04-20T05:08:40.351Z,6.60
2023-04-20T05:11:07.197Z,6.60
2023-04-20T05:13:33.943Z,6.60
2023-04-20T05:16:00.774Z,6.50
2023-04-20T05:18:27.545Z,6.50
2023-04-20T05:20:54.651Z,6.50
2023-04-20T05:23:21.427Z,6.50
2023-04-20T05:25:48.290Z,6.60
2023-04-20T05:28:15.222Z,6.50
2023-04-20T05:30:42.342Z,6.50
2023-04-20T05:33:09.233Z,6.40
2023-04-20T05:35:36.110Z,6.30
2023-04-20T05:38:06.079Z,6.30
2023-04-20T05:40:37.229Z,6.20
2023-04-20T05:43:04.046Z,6.20
2023-04-20T05:45:32.895Z,6.10
2023-04-20T05:47:59.819Z,6.10
2023-04-20T05:50:27.417Z,6.10
2023-04-20T05:52:54.239Z,6.10
2023-04-20T05:55:22.864Z,6.10
2023-04-20T05:57:52.039Z,6.10
2023-04-20T06:00:19.491Z,6.10
2023-04-20T06:02:46.636Z,6.10
2023-04-20T06:05:13.656Z,6.00
2023-04-20T06:07:40.541Z,6.00
2023-04-20T06:10:09.032Z,6.00
2023-04-20T06:12:35.889Z,6.10
2023-04-20T06:15:04.056Z,6.20
2023-04-20T06:17:30.958Z,6.10
2023-04-20T06:19:57.752Z,6.10
2023-04-20T06:22:24.563Z,6.10
2023-04-20T06:24:51.406Z,6.10
2023-04-20T06:27:18.140Z,6.10
2023-04-20T06:29:44.944Z,6.10
2023-04-20T06:32:11.772Z,6.20
2023-04-20T06:34:38.522Z,6.20
2023-04-20T06:37:06.890Z,6.20
2023-04-20T06:39:33.775Z,6.20
2023-04-20T06:42:00.984Z,6.20
2023-04-20T06:44:28.029Z,6.20
2023-04-20T06:46:54.858Z,6.20
2023-04-20T06:49:21.765Z,6.20
2023-04-20T06:51:48.629Z,6.30
2023-04-20T06:54:15.730Z,6.30
2023-04-20T06:56:42.501Z,6.30
2023-04-20T06:59:09.284Z,6.30
2023-04-20T07:01:36.214Z,6.40
2023-04-20T07:04:03.189Z,6.40
2023-04-20T07:06:30.177Z,6.50
2023-04-20T07:08:56.938Z,6.50
2023-04-20T07:11:24.502Z,6.50
2023-04-20T07:13:51.358Z,6.50
2023-04-20T07:16:18.192Z,6.50
2023-04-20T07:18:45.061Z,6.50
2023-04-20T07:21:11.965Z,6.50
2023-04-20T07:23:38.764Z,6.50
2023-04-20T07:26:05.785Z,6.50
2023-04-20T07:28:33.250Z,6.50
2023-04-20T07:31:00.199Z,6.60
2023-04-20T07:33:27.747Z,6.60
2023-04-20T07:35:54.663Z,6.60
2023-04-20T07:38:21.454Z,6.60
2023-04-20T07:40:48.275Z,6.60
2023-04-20T07:43:15.147Z,6.60
2023-04-20T07:45:42.584Z,6.60
2023-04-20T07:48:09.542Z,6.60
2023-04-20T07:50:36.645Z,6.60
2023-04-20T07:53:03.573Z,6.60
2023-04-20T07:55:30.529Z,6.60
2023-04-20T07:57:57.787Z,6.70
2023-04-20T08:00:25.280Z,6.70
2023-04-20T08:02:52.366Z,6.70
2023-04-20T08:05:19.445Z,6.70
2023-04-20T08:07:46.311Z,6.80
2023-04-20T08:10:13.339Z,6.80
2023-04-20T08:12:40.461Z,6.70
2023-04-20T08:15:08.006Z,6.80
2023-04-20T08:17:34.891Z,6.80
2023-04-20T08:20:01.903Z,6.90
2023-04-20T08:22:30.106Z,6.80
2023-04-20T08:24:57.605Z,6.80
2023-04-20T08:27:25.364Z,6.80
2023-04-20T08:29:52.315Z,6.80
2023-04-20T08:32:22.557Z,6.90
2023-04-20T08:34:50.075Z,7.00
2023-04-20T08:37:16.816Z,7.10
2023-04-20T08:39:43.704Z,7.20
2023-04-20T08:42:10.905Z,7.40
2023-04-20T08:44:37.935Z,7.70
2023-04-20T08:47:04.864Z,7.90
2023-04-20T08:49:32.940Z,8.10
2023-04-20T08:51:59.780Z,8.20
2023-04-20T08:54:27.055Z,8.30
2023-04-20T08:56:54.276Z,8.50
2023-04-20T08:59:21.089Z,8.60
2023-04-20T09:01:48.029Z,8.50
2023-04-20T09:04:26.832Z,8.40
2023-04-20T09:06:56.330Z,8.30
2023-04-20T09:09:25.239Z,8.30
2023-04-20T09:12:06.860Z,8.30
2023-04-20T09:14:45.070Z,8.30
2023-04-20T09:17:14.432Z,8.30
2023-04-20T09:19:43.866Z,8.20
2023-04-20T09:22:10.694Z,8.10
2023-04-20T09:24:39.055Z,8.00
2023-04-20T09:27:16.525Z,7.90
2023-04-20T09:29:43.843Z,7.90
2023-04-20T09:32:22.859Z,8.00
2023-04-20T09:34:49.751Z,7.90
2023-04-20T09:37:16.862Z,7.90
2023-04-20T09:39:45.736Z,8.00
2023-04-20T09:42:14.502Z,8.10
2023-04-20T09:44:41.859Z,8.20
2023-04-20T09:47:09.601Z,8.50
2023-04-20T09:49:43.997Z,8.80
2023-04-20T09:52:11.535Z,9.40
2023-04-20T09:54:38.289Z,9.90
2023-04-20T09:57:06.080Z,10.30
2023-04-20T09:59:33.485Z,10.40
2023-04-20T10:02:00.503Z,10.60
2023-04-20T10:04:27.611Z,10.70
2023-04-20T10:06:57.772Z,10.60
2023-04-20T10:09:26.189Z,10.40
2023-04-20T10:11:55.116Z,10.10
2023-04-20T10:14:24.752Z,9.80
2023-04-20T10:17:06.993Z,9.50
2023-04-20T10:19:44.926Z,9.20
2023-04-20T10:22:25.133Z,9.10
2023-04-20T10:24:51.940Z,9.00
2023-04-20T10:27:20.583Z,9.00
2023-04-20T10:29:48.510Z,8.90
2023-04-20T10:32:25.793Z,9.00
2023-04-20T10:35:06.756Z,8.90
2023-04-20T10:37:34.814Z,9.00
2023-04-20T10:40:02.892Z,9.10
2023-04-20T10:42:46.642Z,9.20
2023-04-20T10:45:13.803Z,9.30
2023-04-20T10:47:40.940Z,9.40
2023-04-20T10:50:10.438Z,9.50
2023-04-20T10:52:39.689Z,9.60
2023-04-20T10:55:17.596Z,9.70
2023-04-20T10:57:47.635Z,9.90
2023-04-20T11:00:16.473Z,10.40
2023-04-20T11:02:50.829Z,11.00
2023-04-20T11:05:19.606Z,11.20
2023-04-20T11:07:57.611Z,11.30
2023-04-20T11:10:37.276Z,11.70
2023-04-20T11:13:04.068Z,12.10
2023-04-20T11:15:32.049Z,12.40
2023-04-20T11:18:10.576Z,12.50
2023-04-20T11:20:49.466Z,12.70
2023-04-20T11:23:16.336Z,12.70
2023-04-20T11:25:56.924Z,12.80
2023-04-20T11:28:24.066Z,12.80
2023-04-20T11:30:51.190Z,12.40
2023-04-20T11:33:29.055Z,12.30
2023-04-20T11:35:57.642Z,12.30
2023-04-20T11:38:31.624Z,12.30
2023-04-20T11:41:04.318Z,12.20
2023-04-20T11:43:32.144Z,12.00
2023-04-20T11:45:59.984Z,11.70
2023-04-20T11:48:28.169Z,11.70
2023-04-20T11:50:54.920Z,11.80
2023-04-20T11:53:21.694Z,11.80
2023-04-20T11:55:49.116Z,11.70
2023-04-20T11:58:15.790Z,11.50
2023-04-20T12:00:42.536Z,11.70
2023-04-20T12:03:09.470Z,11.90
2023-04-20T12:05:36.402Z,11.90
2023-04-20T12:08:03.238Z,11.90
2023-04-20T12:10:30.206Z,12.10
2023-04-20T12:12:57.299Z,12.20
2023-04-20T12:15:24.514Z,12.10
2023-04-20T12:17:51.922Z,12.30
2023-04-20T12:20:18.665Z,12.50
2023-04-20T12:22:45.506Z,12.60
2023-04-20T12:25:12.497Z,12.90
2023-04-20T12:27:39.387Z,12.90
2023-04-20T12:30:09.100Z,13.10
2023-04-20T12:32:36.058Z,13.20
2023-04-20T12:35:02.943Z,13.50
2023-04-20T12:37:29.895Z,13.50
2023-04-20T12:39:57.581Z,13.40
2023-04-20T12:42:24.781Z,13.30
2023-04-20T12:44:56.040Z,13.30
2023-04-20T12:47:23.010Z,13.30
2023-04-20T12:49:49.822Z,13.30
2023-04-20T12:52:16.577Z,12.90
2023-04-20T12:54:44.307Z,12.80
2023-04-20T12:57:11.767Z,12.90
2023-04-20T12:59:38.575Z,13.20
2023-04-20T13:02:05.387Z,13.20
2023-04-20T13:04:32.436Z,13.00
2023-04-20T13:06:59.501Z,12.80
2023-04-20T13:09:27.142Z,12.50
2023-04-20T13:11:54.291Z,12.20
2023-04-20T13:14:21.472Z,12.10
2023-04-20T13:16:48.750Z,12.10
2023-04-20T13:19:15.694Z,12.00
2023-04-20T13:21:42.642Z,11.80
2023-04-20T13:24:09.753Z,11.70
2023-04-20T13:26:36.921Z,11.70
2023-04-20T13:29:03.791Z,11.80
2023-04-20T13:31:31.990Z,11.80
2023-04-20T13:33:59.454Z,12.10
2023-04-20T13:36:28.015Z,12.40
2023-04-20T13:38:55.759Z,12.80
2023-04-20T13:41:25.703Z,13.20
2023-04-20T13:43:52.603Z,13.60
2023-04-20T13:46:20.230Z,13.70
2023-04-20T13:48:47.130Z,13.30
2023-04-20T13:51:14.023Z,13.20
2023-04-20T13:53:41.196Z,13.10
2023-04-20T13:56:08.085Z,13.10
2023-04-20T13:58:35.019Z,13.10
2023-04-20T14:01:07.899Z,13.10
2023-04-20T14:03:34.768Z,12.90
2023-04-20T14:06:01.636Z,12.50
2023-04-20T14:08:28.437Z,12.30
2023-04-20T14:10:55.439Z,12.20
2023-04-20T14:13:23.594Z,12.20
2023-04-20T14:15:51.242Z,12.30
2023-04-20T14:18:18.165Z,12.30
2023-04-20T14:20:45.592Z,12.40
2023-04-20T14:23:12.377Z,12.20
2023-04-20T14:25:39.191Z,12.20
2023-04-20T14:28:05.993Z,12.20
2023-04-20T14:30:32.848Z,12.30
2023-04-20T14:33:00.611Z,12.60
2023-04-20T14:35:28.406Z,12.70
2023-04-20T14:37:55.221Z,12.90
2023-04-20T14:40:22.446Z,13.10
2023-04-20T14:42:49.296Z,13.20
2023-04-20T14:45:16.214Z,13.20
2023-04-20T14:47:43.044Z,13.30
2023-04-20T14:50:10.665Z,13.20
2023-04-20T14:52:37.441Z,13.10
2023-04-20T14:55:04.540Z,13.00
2023-04-20T14:57:31.548Z,13.20
2023-04-20T14:59:58.322Z,13.20
2023-04-20T15:02:25.476Z,13.30
2023-04-20T15:04:52.790Z,13.40
2023-04-20T15:07:19.700Z,13.30
2023-04-20T15:09:46.630Z,13.30
2023-04-20T15:12:13.609Z,13.30
2023-04-20T15:14:40.477Z,13.40
2023-04-20T15:17:07.410Z,13.70
2023-04-20T15:19:34.202Z,13.90
2023-04-20T15:22:01.214Z,14.00
2023-04-20T15:24:28.053Z,14.00
2023-04-20T15:26:54.954Z,13.60
2023-04-20T15:29:21.911Z,13.30
2023-04-20T15:31:48.796Z,13.10
2023-04-20T15:34:17.185Z,13.10
2023-04-20T15:36:44.660Z,13.00
2023-04-20T15:39:12.342Z,12.90
2023-04-20T15:41:39.269Z,12.90
2023-04-20T15:44:06.650Z,13.10
2023-04-20T15:46:34.059Z,13.40
2023-04-20T15:49:01.103Z,13.70
2023-04-20T15:51:28.072Z,13.80
2023-04-20T15:53:55.072Z,14.10
2023-04-20T15:56:24.659Z,14.40
2023-04-20T15:58:51.900Z,14.20
2023-04-20T16:01:19.597Z,14.00
2023-04-20T16:03:47.541Z,14.10
2023-04-20T16:06:33.098Z,14.20
2023-04-20T16:09:18.631Z,13.60
2023-04-20T16:11:45.520Z,13.20
2023-04-20T16:14:12.334Z,13.10
2023-04-20T16:16:39.133Z,13.10
2023-04-20T16:19:05.928Z,13.10
2023-04-20T16:21:32.965Z,13.00
2023-04-20T16:24:00.252Z,12.90
2023-04-20T16:26:27.152Z,12.70
2023-04-20T16:28:54.170Z,12.50
2023-04-20T16:31:21.091Z,12.40
2023-04-20T16:33:48.024Z,12.20
2023-04-20T16:36:16.232Z,12.10
2023-04-20T16:38:43.351Z,11.90
2023-04-20T16:41:10.521Z,11.80
2023-04-20T16:43:37.325Z,11.70
2023-04-20T16:46:04.148Z,11.60
2023-04-20T16:48:31.698Z,11.40
2023-04-20T16:50:58.473Z,11.30
2023-04-20T16:53:25.795Z,11.10
2023-04-20T16:55:52.583Z,11.00
2023-04-20T16:58:19.423Z,10.90
2023-04-20T17:00:46.281Z,10.80
2023-04-20T17:03:13.869Z,10.70
2023-04-20T17:05:42.133Z,10.50
2023-04-20T17:08:09.414Z,10.40
2023-04-20T17:10:39.346Z,10.20
2023-04-20T17:13:06.224Z,10.10
2023-04-20T17:15:33.047Z,10.20
2023-04-20T17:17:59.865Z,10.10
2023-04-20T17:20:26.817Z,10.00
2023-04-20T17:22:53.654Z,10.00
2023-04-20T17:25:20.494Z,10.00
2023-04-20T17:27:47.278Z,9.90
2023-04-20T17:30:14.482Z,9.90
2023-04-20T17:32:41.843Z,9.80
2023-04-20T17:35:08.946Z,9.80
2023-04-20T17:37:36.502Z,9.70
2023-04-20T17:40:04.617Z,9.70
2023-04-20T17:42:31.624Z,9.70
2023-04-20T17:44:58.495Z,9.70
2023-04-20T17:47:25.392Z,9.70
2023-04-20T17:49:52.213Z,9.60
2023-04-20T17:52:19.618Z,9.60
2023-04-20T17:54:46.418Z,9.50
2023-04-20T17:57:14.235Z,9.40
2023-04-20T17:59:42.259Z,9.40
2023-04-20T18:02:09.314Z,9.30
2023-04-20T18:04:36.390Z,9.30
2023-04-20T18:07:03.748Z,9.30
2023-04-20T18:09:30.807Z,9.20
2023-04-20T18:11:57.583Z,9.20
2023-04-20T18:14:42.598Z,9.20
2023-04-20T18:17:09.821Z,9.20
2023-04-20T18:19:36.656Z,9.20
2023-04-20T18:22:03.964Z,9.10
2023-04-20T18:24:30.742Z,9.00
2023-04-20T18:26:57.621Z,9.00
2023-04-20T18:29:24.451Z,9.00
2023-04-20T18:31:53.417Z,9.00
2023-04-20T18:34:20.549Z,9.00
2023-04-20T18:36:47.429Z,8.90
2023-04-20T18:39:14.993Z,8.90
2023-04-20T18:41:41.737Z,8.90
2023-04-20T18:44:08.577Z,8.90
2023-04-20T18:46:35.418Z,8.80
2023-04-20T18:49:02.318Z,8.80
2023-04-20T18:51:29.143Z,8.80
2023-04-20T18:53:55.954Z,8.80
2023-04-20T18:56:22.770Z,8.70
2023-04-20T18:58:49.682Z,8.70
2023-04-20T19:01:16.716Z,8.70
2023-04-20T19:03:45.557Z,8.70
2023-04-20T19:06:14.592Z,8.70
2023-04-20T19:08:41.406Z,8.70
2023-04-20T19:11:08.181Z,8.70
2023-04-20T19:13:34.999Z,8.70
2023-04-20T19:16:01.886Z,8.60
2023-04-20T19:18:28.719Z,8.60
2023-04-20T19:20:55.573Z,8.60
2023-04-20T19:23:22.344Z,8.60
2023-04-20T19:25:49.196Z,8.60
2023-04-20T19:28:16.034Z,8.50
2023-04-20T19:30:42.884Z,8.50
2023-04-20T19:33:09.695Z,8.50
2023-04-20T19:35:36.698Z,8.50
2023-04-20T19:38:03.601Z,8.50
2023-04-20T19:40:30.428Z,8.40
2023-04-20T19:42:57.201Z,8.40
2023-04-20T19:45:24.201Z,8.40
2023-04-20T19:47:51.711Z,8.40
2023-04-20T19:50:18.686Z,8.40
2023-04-20T19:52:45.578Z,8.30
2023-04-20T19:55:12.450Z,8.30
2023-04-20T19:57:39.345Z,8.30
2023-04-20T20:00:08.473Z,8.30
2023-04-20T20:02:40.341Z,8.40
2023-04-20T20:05:07.953Z,8.30
2023-04-20T20:07:34.997Z,8.30
2023-04-20T20:10:03.266Z,8.30
2023-04-20T20:12:30.556Z,8.30
2023-04-20T20:14:57.395Z,8.30
2023-04-20T20:17:24.220Z,8.30
2023-04-20T20:19:53.680Z,8.30
2023-04-20T20:22:21.264Z,8.30
2023-04-20T20:24:50.989Z,8.20
2023-04-20T20:27:17.873Z,8.30
2023-04-20T20:29:44.734Z,8.30
2023-04-20T20:32:11.529Z,8.20
2023-04-20T20:34:38.343Z,8.30
2023-04-20T20:37:05.137Z,8.30
2023-04-20T20:39:32.388Z,8.30
2023-04-20T20:41:59.553Z,8.30
2023-04-20T20:44:27.762Z,8.30
2023-04-20T20:46:54.684Z,8.30
2023-04-20T20:49:21.528Z,8.30
2023-04-20T20:51:48.320Z,8.30
2023-04-20T20:54:15.383Z,8.30
2023-04-20T20:56:43.533Z,8.20
2023-04-20T20:59:10.656Z,8.20
2023-04-20T21:01:37.558Z,8.20
2023-04-20T21:04:04.739Z,8.20
2023-04-20T21:06:32.602Z,8.20
2023-04-20T21:08:59.487Z,8.20
2023-04-20T21:11:26.339Z,8.20
2023-04-20T21:13:54.158Z,8.20
2023-04-20T21:16:21.022Z,8.20
2023-04-20T21:18:47.829Z,8.20
2023-04-20T21:21:16.257Z,8.20
2023-04-20T21:23:43.096Z,8.20
2023-04-20T21:26:09.869Z,8.20
2023-04-20T21:28:36.649Z,8.20
2023-04-20T21:31:03.471Z,8.30
2023-04-20T21:33:30.489Z,8.30
2023-04-20T21:35:58.977Z,8.30
2023-04-20T21:38:25.938Z,8.20
2023-04-20T21:40:52.776Z,8.20
2023-04-20T21:43:19.648Z,8.20
2023-04-20T21:45:46.480Z,8.20
2023-04-20T21:48:13.305Z,8.20
2023-04-20T21:50:40.120Z,8.20
2023-04-20T21:53:07.003Z,8.20
2023-04-20T21:55:33.839Z,8.20
2023-04-20T21:58:00.674Z,8.20
2023-04-20T22:00:27.589Z,8.20
2023-04-20T22:02:54.427Z,8.20
2023-04-20T22:05:21.684Z,8.20
2023-04-20T22:07:48.570Z,8.10
2023-04-20T22:10:15.592Z,8.20
2023-04-20T22:12:42.571Z,8.20
2023-04-20T22:15:11.480Z,8.20
2023-04-20T22:17:38.425Z,8.20
2023-04-20T22:20:07.858Z,8.20
2023-04-20T22:22:35.675Z,8.20
2023-04-20T22:25:04.558Z,8.20
2023-04-20T22:27:32.624Z,8.20
2023-04-20T22:29:59.755Z,8.20
2023-04-20T22:32:27.301Z,8.20
2023-04-20T22:34:54.031Z,8.20
2023-04-20T22:37:20.805Z,8.20
2023-04-20T22:39:47.581Z,8.10
2023-04-20T22:42:14.399Z,8.10
2023-04-20T22:44:41.185Z,8.10
2023-04-20T22:47:08.007Z,8.00
2023-04-20T22:49:35.750Z,8.10
2023-04-20T22:52:02.655Z,8.10
2023-04-20T22:54:30.372Z,8.00
2023-04-20T22:56:58.620Z,8.00
2023-04-20T22:59:25.441Z,8.00
2023-04-20T23:01:52.296Z,7.90
2023-04-20T23:04:19.203Z,8.00
2023-04-20T23:06:47.169Z,8.00
2023-04-20T23:09:17.294Z,7.90
2023-04-20T23:11:47.156Z,7.90
2023-04-20T23:14:14.119Z,7.90
2023-04-20T23:16:41.097Z,7.90
2023-04-20T23:19:08.253Z,7.80
2023-04-20T23:21:35.091Z,7.80
2023-04-20T23:24:01.935Z,7.80
2023-04-20T23:26:28.762Z,7.80
2023-04-20T23:28:55.712Z,7.80
2023-04-20T23:31:22.613Z,7.80
2023-04-20T23:33:49.668Z,7.80
2023-04-20T23:36:16.696Z,7.80
2023-04-20T23:38:43.843Z,7.80
2023-04-20T23:41:13.947Z,7.80
2023-04-20T23:43:41.263Z,7.70
2023-04-20T23:46:08.670Z,7.80
2023-04-20T23:48:35.534Z,7.80
2023-04-20T23:51:02.352Z,7.80
2023-04-20T23:53:29.135Z,7.80
2023-04-20T23:55:55.908Z,7.80
2023-04-20T23:58:27.177Z,7.80
